sensor_id;sensor_type;location;lat;lon;timestamp;P1;durP1;ratioP1;P2;durP2;ratioP2
40599;SDS011;26309;50.924;4.754;2024-02-14T00:00:11;7.65;;;4.18;;
40599;SDS011;26309;50.924;4.754;2024-02-14T00:02:43;6.50;;;3.40;;
40599;SDS011;26309;50.924;4.754;2024-02-14T00:05:09;3.75;;;3.38;;
40599;SDS011;26309;50.924;4.754;2024-02-14T00:07:38;6.22;;;3.63;;
40599;SDS011;26309;50.924;4.754;2024-02-14T00:10:07;6.45;;;3.75;;
40599;SDS011;26309;50.924;4.754;2024-02-14T00:12:34;5.43;;;3.13;;
40599;SDS011;26309;50.924;4.754;2024-02-14T00:15:01;8.98;;;3.45;;
40599;SDS011;26309;50.924;4.754;2024-02-14T00:17:28;4.82;;;3.50;;
40599;SDS011;26309;50.924;4.754;2024-02-14T00:19:54;6.00;;;3.70;;
40599;SDS011;26309;50.924;4.754;2024-02-14T00:22:21;6.35;;;3.50;;
40599;SDS011;26309;50.924;4.754;2024-02-14T00:24:46;5.72;;;3.90;;
40599;SDS011;26309;50.924;4.754;2024-02-14T00:27:12;6.35;;;3.72;;
40599;SDS011;26309;50.924;4.754;2024-02-14T00:29:39;6.35;;;3.83;;
40599;SDS011;26309;50.924;4.754;2024-02-14T00:32:06;5.82;;;3.65;;
40599;SDS011;26309;50.924;4.754;2024-02-14T00:34:32;5.03;;;3.40;;
40599;SDS011;26309;50.924;4.754;2024-02-14T00:36:58;4.32;;;3.50;;
40599;SDS011;26309;50.924;4.754;2024-02-14T00:39:24;4.78;;;3.47;;
40599;SDS011;26309;50.924;4.754;2024-02-14T00:41:50;6.53;;;3.75;;
40599;SDS011;26309;50.924;4.754;2024-02-14T00:44:18;5.57;;;3.60;;
40599;SDS011;26309;50.924;4.754;2024-02-14T00:46:44;6.15;;;3.45;;
40599;SDS011;26309;50.924;4.754;2024-02-14T00:49:11;5.03;;;3.80;;
40599;SDS011;26309;50.924;4.754;2024-02-14T00:51:37;6.93;;;3.70;;
40599;SDS011;26309;50.924;4.754;2024-02-14T00:54:06;7.30;;;3.20;;
40599;SDS011;26309;50.924;4.754;2024-02-14T00:56:33;5.78;;;3.53;;
40599;SDS011;26309;50.924;4.754;2024-02-14T00:58:59;6.07;;;3.65;;
40599;SDS011;26309;50.924;4.754;2024-02-14T01:01:25;6.07;;;3.40;;
40599;SDS011;26309;50.924;4.754;2024-02-14T01:03:50;4.38;;;3.33;;
40599;SDS011;26309;50.924;4.754;2024-02-14T01:06:16;7.63;;;3.55;;
40599;SDS011;26309;50.924;4.754;2024-02-14T01:08:43;3.50;;;3.08;;
40599;SDS011;26309;50.924;4.754;2024-02-14T01:11:09;5.63;;;3.50;;
40599;SDS011;26309;50.924;4.754;2024-02-14T01:13:35;5.18;;;3.33;;
40599;SDS011;26309;50.924;4.754;2024-02-14T01:16:02;6.50;;;3.70;;
40599;SDS011;26309;50.924;4.754;2024-02-14T01:18:29;6.70;;;3.35;;
40599;SDS011;26309;50.924;4.754;2024-02-14T01:20:56;4.78;;;3.47;;
40599;SDS011;26309;50.924;4.754;2024-02-14T01:23:24;5.50;;;3.72;;
40599;SDS011;26309;50.924;4.754;2024-02-14T01:25:50;6.27;;;3.60;;
40599;SDS011;26309;50.924;4.754;2024-02-14T01:28:16;6.03;;;3.67;;
40599;SDS011;26309;50.924;4.754;2024-02-14T01:30:42;8.02;;;4.20;;
40599;SDS011;26309;50.924;4.754;2024-02-14T01:33:08;5.68;;;3.88;;
40599;SDS011;26309;50.924;4.754;2024-02-14T01:35:34;6.85;;;4.75;;
40599;SDS011;26309;50.924;4.754;2024-02-14T01:38:00;9.75;;;3.97;;
40599;SDS011;26309;50.924;4.754;2024-02-14T01:40:28;6.68;;;4.30;;
40599;SDS011;26309;50.924;4.754;2024-02-14T01:42:54;5.82;;;4.50;;
40599;SDS011;26309;50.924;4.754;2024-02-14T01:45:20;9.27;;;4.20;;
40599;SDS011;26309;50.924;4.754;2024-02-14T01:47:50;5.55;;;4.20;;
40599;SDS011;26309;50.924;4.754;2024-02-14T01:50:16;7.22;;;4.43;;
40599;SDS011;26309;50.924;4.754;2024-02-14T01:52:43;7.80;;;4.65;;
40599;SDS011;26309;50.924;4.754;2024-02-14T01:55:10;8.88;;;4.40;;
40599;SDS011;26309;50.924;4.754;2024-02-14T01:57:37;6.28;;;4.10;;
40599;SDS011;26309;50.924;4.754;2024-02-14T02:00:05;6.97;;;4.47;;
40599;SDS011;26309;50.924;4.754;2024-02-14T02:02:34;5.53;;;4.43;;
40599;SDS011;26309;50.924;4.754;2024-02-14T02:05:05;5.15;;;3.90;;
40599;SDS011;26309;50.924;4.754;2024-02-14T02:07:32;8.60;;;4.43;;
40599;SDS011;26309;50.924;4.754;2024-02-14T02:09:58;11.57;;;5.00;;
40599;SDS011;26309;50.924;4.754;2024-02-14T02:12:24;6.22;;;4.53;;
40599;SDS011;26309;50.924;4.754;2024-02-14T02:14:53;8.55;;;4.85;;
40599;SDS011;26309;50.924;4.754;2024-02-14T02:17:19;5.65;;;4.38;;
40599;SDS011;26309;50.924;4.754;2024-02-14T02:19:46;5.53;;;4.82;;
40599;SDS011;26309;50.924;4.754;2024-02-14T02:22:12;7.80;;;5.20;;
40599;SDS011;26309;50.924;4.754;2024-02-14T02:24:37;10.90;;;4.88;;
40599;SDS011;26309;50.924;4.754;2024-02-14T02:27:03;6.15;;;4.95;;
40599;SDS011;26309;50.924;4.754;2024-02-14T02:29:29;6.18;;;4.93;;
40599;SDS011;26309;50.924;4.754;2024-02-14T02:31:57;7.57;;;5.00;;
40599;SDS011;26309;50.924;4.754;2024-02-14T02:34:23;8.73;;;5.07;;
40599;SDS011;26309;50.924;4.754;2024-02-14T02:36:49;5.47;;;4.95;;
40599;SDS011;26309;50.924;4.754;2024-02-14T02:39:16;7.65;;;5.63;;
40599;SDS011;26309;50.924;4.754;2024-02-14T02:41:42;6.22;;;5.15;;
40599;SDS011;26309;50.924;4.754;2024-02-14T02:44:12;5.88;;;4.80;;
40599;SDS011;26309;50.924;4.754;2024-02-14T02:46:38;6.80;;;4.78;;
40599;SDS011;26309;50.924;4.754;2024-02-14T02:49:04;9.00;;;4.93;;
40599;SDS011;26309;50.924;4.754;2024-02-14T02:51:30;6.68;;;4.85;;
40599;SDS011;26309;50.924;4.754;2024-02-14T02:53:56;5.35;;;4.78;;
40599;SDS011;26309;50.924;4.754;2024-02-14T02:56:22;6.03;;;4.45;;
40599;SDS011;26309;50.924;4.754;2024-02-14T02:58:54;5.07;;;4.57;;
40599;SDS011;26309;50.924;4.754;2024-02-14T03:01:20;5.57;;;4.22;;
40599;SDS011;26309;50.924;4.754;2024-02-14T03:03:49;7.95;;;4.90;;
40599;SDS011;26309;50.924;4.754;2024-02-14T03:06:15;6.40;;;4.88;;
40599;SDS011;26309;50.924;4.754;2024-02-14T03:08:41;11.30;;;5.18;;
40599;SDS011;26309;50.924;4.754;2024-02-14T03:11:07;8.23;;;5.20;;
40599;SDS011;26309;50.924;4.754;2024-02-14T03:13:33;8.07;;;5.45;;
40599;SDS011;26309;50.924;4.754;2024-02-14T03:16:00;7.70;;;5.63;;
40599;SDS011;26309;50.924;4.754;2024-02-14T03:18:26;8.55;;;5.65;;
40599;SDS011;26309;50.924;4.754;2024-02-14T03:20:52;7.65;;;5.72;;
40599;SDS011;26309;50.924;4.754;2024-02-14T03:23:21;8.98;;;5.63;;
40599;SDS011;26309;50.924;4.754;2024-02-14T03:25:47;9.20;;;6.10;;
40599;SDS011;26309;50.924;4.754;2024-02-14T03:28:13;10.15;;;6.22;;
40599;SDS011;26309;50.924;4.754;2024-02-14T03:30:39;6.88;;;5.78;;
40599;SDS011;26309;50.924;4.754;2024-02-14T03:33:05;8.13;;;6.20;;
40599;SDS011;26309;50.924;4.754;2024-02-14T03:35:33;8.90;;;6.07;;
40599;SDS011;26309;50.924;4.754;2024-02-14T03:38:02;9.98;;;6.40;;
40599;SDS011;26309;50.924;4.754;2024-02-14T03:40:29;10.07;;;6.82;;
40599;SDS011;26309;50.924;4.754;2024-02-14T03:42:57;13.07;;;7.90;;
40599;SDS011;26309;50.924;4.754;2024-02-14T03:45:23;9.65;;;6.72;;
40599;SDS011;26309;50.924;4.754;2024-02-14T03:47:49;8.90;;;7.53;;
40599;SDS011;26309;50.924;4.754;2024-02-14T03:50:15;12.65;;;7.47;;
40599;SDS011;26309;50.924;4.754;2024-02-14T03:52:41;13.48;;;7.90;;
40599;SDS011;26309;50.924;4.754;2024-02-14T03:55:10;9.30;;;7.60;;
40599;SDS011;26309;50.924;4.754;2024-02-14T03:57:38;12.05;;;8.13;;
40599;SDS011;26309;50.924;4.754;2024-02-14T04:00:05;11.93;;;7.22;;
40599;SDS011;26309;50.924;4.754;2024-02-14T04:02:35;14.82;;;7.85;;
40599;SDS011;26309;50.924;4.754;2024-02-14T04:05:01;10.90;;;7.68;;
40599;SDS011;26309;50.924;4.754;2024-02-14T04:07:30;14.20;;;7.97;;
40599;SDS011;26309;50.924;4.754;2024-02-14T04:09:56;14.88;;;7.70;;
40599;SDS011;26309;50.924;4.754;2024-02-14T04:12:22;10.40;;;7.50;;
40599;SDS011;26309;50.924;4.754;2024-02-14T04:14:48;12.70;;;7.72;;
40599;SDS011;26309;50.924;4.754;2024-02-14T04:17:14;14.98;;;8.20;;
40599;SDS011;26309;50.924;4.754;2024-02-14T04:19:40;12.57;;;8.45;;
40599;SDS011;26309;50.924;4.754;2024-02-14T04:22:06;9.70;;;7.85;;
40599;SDS011;26309;50.924;4.754;2024-02-14T04:24:33;11.75;;;8.35;;
40599;SDS011;26309;50.924;4.754;2024-02-14T04:27:00;13.13;;;8.35;;
40599;SDS011;26309;50.924;4.754;2024-02-14T04:29:27;13.07;;;8.32;;
40599;SDS011;26309;50.924;4.754;2024-02-14T04:31:55;12.30;;;8.20;;
40599;SDS011;26309;50.924;4.754;2024-02-14T04:34:22;10.52;;;8.73;;
40599;SDS011;26309;50.924;4.754;2024-02-14T04:36:50;10.32;;;7.90;;
40599;SDS011;26309;50.924;4.754;2024-02-14T04:39:16;13.75;;;9.65;;
40599;SDS011;26309;50.924;4.754;2024-02-14T04:41:43;11.98;;;9.07;;
40599;SDS011;26309;50.924;4.754;2024-02-14T04:44:09;12.57;;;8.52;;
40599;SDS011;26309;50.924;4.754;2024-02-14T04:46:34;12.00;;;8.82;;
40599;SDS011;26309;50.924;4.754;2024-02-14T04:49:03;11.32;;;8.30;;
40599;SDS011;26309;50.924;4.754;2024-02-14T04:51:29;12.43;;;8.23;;
40599;SDS011;26309;50.924;4.754;2024-02-14T04:53:56;12.85;;;8.30;;
40599;SDS011;26309;50.924;4.754;2024-02-14T04:56:26;10.68;;;8.30;;
40599;SDS011;26309;50.924;4.754;2024-02-14T04:58:53;9.77;;;7.78;;
40599;SDS011;26309;50.924;4.754;2024-02-14T05:01:20;11.27;;;8.60;;
40599;SDS011;26309;50.924;4.754;2024-02-14T05:03:46;11.07;;;8.40;;
40599;SDS011;26309;50.924;4.754;2024-02-14T05:06:13;10.82;;;7.82;;
40599;SDS011;26309;50.924;4.754;2024-02-14T05:08:39;8.95;;;7.30;;
40599;SDS011;26309;50.924;4.754;2024-02-14T05:11:05;12.18;;;8.27;;
40599;SDS011;26309;50.924;4.754;2024-02-14T05:13:31;12.05;;;8.27;;
40599;SDS011;26309;50.924;4.754;2024-02-14T05:15:57;10.32;;;8.40;;
40599;SDS011;26309;50.924;4.754;2024-02-14T05:18:23;11.35;;;8.43;;
40599;SDS011;26309;50.924;4.754;2024-02-14T05:20:49;11.02;;;7.97;;
40599;SDS011;26309;50.924;4.754;2024-02-14T05:23:14;12.50;;;8.80;;
40599;SDS011;26309;50.924;4.754;2024-02-14T05:25:43;13.18;;;9.48;;
40599;SDS011;26309;50.924;4.754;2024-02-14T05:28:09;13.50;;;8.45;;
40599;SDS011;26309;50.924;4.754;2024-02-14T05:30:39;12.57;;;9.30;;
40599;SDS011;26309;50.924;4.754;2024-02-14T05:33:05;10.55;;;8.60;;
40599;SDS011;26309;50.924;4.754;2024-02-14T05:35:31;12.43;;;8.90;;
40599;SDS011;26309;50.924;4.754;2024-02-14T05:37:57;11.10;;;9.32;;
40599;SDS011;26309;50.924;4.754;2024-02-14T05:40:23;13.55;;;10.55;;
40599;SDS011;26309;50.924;4.754;2024-02-14T05:42:49;14.30;;;10.52;;
40599;SDS011;26309;50.924;4.754;2024-02-14T05:45:15;14.88;;;9.48;;
40599;SDS011;26309;50.924;4.754;2024-02-14T05:47:42;13.63;;;10.25;;
40599;SDS011;26309;50.924;4.754;2024-02-14T05:50:08;16.52;;;9.98;;
40599;SDS011;26309;50.924;4.754;2024-02-14T05:52:37;15.35;;;10.25;;
40599;SDS011;26309;50.924;4.754;2024-02-14T05:55:03;14.30;;;9.50;;
40599;SDS011;26309;50.924;4.754;2024-02-14T05:57:30;14.85;;;9.65;;
40599;SDS011;26309;50.924;4.754;2024-02-14T05:59:56;11.60;;;9.30;;
40599;SDS011;26309;50.924;4.754;2024-02-14T06:02:22;15.27;;;9.63;;
40599;SDS011;26309;50.924;4.754;2024-02-14T06:04:48;11.98;;;8.32;;
40599;SDS011;26309;50.924;4.754;2024-02-14T06:07:13;11.95;;;8.93;;
40599;SDS011;26309;50.924;4.754;2024-02-14T06:09:39;13.07;;;9.95;;
40599;SDS011;26309;50.924;4.754;2024-02-14T06:12:06;12.80;;;8.48;;
40599;SDS011;26309;50.924;4.754;2024-02-14T06:14:32;12.52;;;8.55;;
40599;SDS011;26309;50.924;4.754;2024-02-14T06:16:59;11.57;;;8.52;;
40599;SDS011;26309;50.924;4.754;2024-02-14T06:19:26;12.13;;;8.85;;
40599;SDS011;26309;50.924;4.754;2024-02-14T06:21:52;13.98;;;9.35;;
40599;SDS011;26309;50.924;4.754;2024-02-14T06:24:18;12.02;;;8.75;;
40599;SDS011;26309;50.924;4.754;2024-02-14T06:26:47;15.90;;;8.85;;
40599;SDS011;26309;50.924;4.754;2024-02-14T06:29:13;12.07;;;8.70;;
40599;SDS011;26309;50.924;4.754;2024-02-14T06:31:39;13.20;;;8.45;;
40599;SDS011;26309;50.924;4.754;2024-02-14T06:34:05;11.77;;;8.55;;
40599;SDS011;26309;50.924;4.754;2024-02-14T06:36:32;12.70;;;8.35;;
40599;SDS011;26309;50.924;4.754;2024-02-14T06:38:58;11.90;;;8.65;;
40599;SDS011;26309;50.924;4.754;2024-02-14T06:41:23;14.00;;;8.98;;
40599;SDS011;26309;50.924;4.754;2024-02-14T06:43:49;14.18;;;8.20;;
40599;SDS011;26309;50.924;4.754;2024-02-14T06:46:16;13.35;;;8.15;;
40599;SDS011;26309;50.924;4.754;2024-02-14T06:48:42;11.90;;;8.02;;
40599;SDS011;26309;50.924;4.754;2024-02-14T06:51:08;12.68;;;7.80;;
40599;SDS011;26309;50.924;4.754;2024-02-14T06:53:34;18.42;;;8.13;;
40599;SDS011;26309;50.924;4.754;2024-02-14T06:56:00;12.07;;;8.02;;
40599;SDS011;26309;50.924;4.754;2024-02-14T06:58:26;12.27;;;7.40;;
40599;SDS011;26309;50.924;4.754;2024-02-14T07:00:52;11.77;;;7.38;;
40599;SDS011;26309;50.924;4.754;2024-02-14T07:03:18;12.05;;;7.28;;
40599;SDS011;26309;50.924;4.754;2024-02-14T07:05:44;11.23;;;7.70;;
40599;SDS011;26309;50.924;4.754;2024-02-14T07:08:10;15.70;;;8.20;;
40599;SDS011;26309;50.924;4.754;2024-02-14T07:10:36;14.10;;;8.45;;
40599;SDS011;26309;50.924;4.754;2024-02-14T07:13:02;12.43;;;8.50;;
40599;SDS011;26309;50.924;4.754;2024-02-14T07:15:28;12.13;;;7.75;;
40599;SDS011;26309;50.924;4.754;2024-02-14T07:17:54;13.98;;;7.80;;
40599;SDS011;26309;50.924;4.754;2024-02-14T07:20:23;15.10;;;7.60;;
40599;SDS011;26309;50.924;4.754;2024-02-14T07:22:51;13.02;;;8.02;;
40599;SDS011;26309;50.924;4.754;2024-02-14T07:25:21;11.65;;;7.65;;
40599;SDS011;26309;50.924;4.754;2024-02-14T07:27:47;12.93;;;8.52;;
40599;SDS011;26309;50.924;4.754;2024-02-14T07:30:15;14.00;;;8.35;;
40599;SDS011;26309;50.924;4.754;2024-02-14T07:32:42;14.82;;;8.15;;
40599;SDS011;26309;50.924;4.754;2024-02-14T07:35:11;13.35;;;8.38;;
40599;SDS011;26309;50.924;4.754;2024-02-14T07:37:38;11.88;;;7.25;;
40599;SDS011;26309;50.924;4.754;2024-02-14T07:40:05;9.63;;;6.95;;
40599;SDS011;26309;50.924;4.754;2024-02-14T07:42:34;12.15;;;7.03;;
40599;SDS011;26309;50.924;4.754;2024-02-14T07:45:00;11.30;;;6.95;;
40599;SDS011;26309;50.924;4.754;2024-02-14T07:47:29;11.48;;;7.20;;
40599;SDS011;26309;50.924;4.754;2024-02-14T07:49:54;11.43;;;7.88;;
40599;SDS011;26309;50.924;4.754;2024-02-14T07:52:22;11.52;;;7.38;;
40599;SDS011;26309;50.924;4.754;2024-02-14T07:54:51;12.02;;;7.25;;
40599;SDS011;26309;50.924;4.754;2024-02-14T07:57:19;9.98;;;7.30;;
40599;SDS011;26309;50.924;4.754;2024-02-14T07:59:45;13.65;;;7.50;;
40599;SDS011;26309;50.924;4.754;2024-02-14T08:02:10;12.93;;;7.38;;
40599;SDS011;26309;50.924;4.754;2024-02-14T08:04:36;9.95;;;7.05;;
40599;SDS011;26309;50.924;4.754;2024-02-14T08:07:02;12.10;;;7.22;;
40599;SDS011;26309;50.924;4.754;2024-02-14T08:09:29;9.25;;;7.07;;
40599;SDS011;26309;50.924;4.754;2024-02-14T08:11:55;12.60;;;7.30;;
40599;SDS011;26309;50.924;4.754;2024-02-14T08:14:21;14.00;;;7.53;;
40599;SDS011;26309;50.924;4.754;2024-02-14T08:16:46;9.68;;;6.63;;
40599;SDS011;26309;50.924;4.754;2024-02-14T08:19:12;11.38;;;6.97;;
40599;SDS011;26309;50.924;4.754;2024-02-14T08:21:38;11.00;;;6.55;;
40599;SDS011;26309;50.924;4.754;2024-02-14T08:24:05;11.10;;;7.65;;
40599;SDS011;26309;50.924;4.754;2024-02-14T08:26:31;11.68;;;7.00;;
40599;SDS011;26309;50.924;4.754;2024-02-14T08:28:57;12.75;;;7.15;;
40599;SDS011;26309;50.924;4.754;2024-02-14T08:31:25;15.77;;;6.93;;
40599;SDS011;26309;50.924;4.754;2024-02-14T08:33:51;11.00;;;7.07;;
40599;SDS011;26309;50.924;4.754;2024-02-14T08:36:18;14.05;;;7.65;;
40599;SDS011;26309;50.924;4.754;2024-02-14T08:38:44;11.35;;;7.10;;
40599;SDS011;26309;50.924;4.754;2024-02-14T08:41:10;13.30;;;8.38;;
40599;SDS011;26309;50.924;4.754;2024-02-14T08:43:37;11.85;;;7.53;;
40599;SDS011;26309;50.924;4.754;2024-02-14T08:46:03;9.90;;;7.47;;
40599;SDS011;26309;50.924;4.754;2024-02-14T08:48:39;14.30;;;8.02;;
40599;SDS011;26309;50.924;4.754;2024-02-14T08:51:11;15.30;;;8.60;;
40599;SDS011;26309;50.924;4.754;2024-02-14T08:53:38;13.82;;;8.30;;
40599;SDS011;26309;50.924;4.754;2024-02-14T08:56:04;13.93;;;8.75;;
40599;SDS011;26309;50.924;4.754;2024-02-14T08:58:30;14.60;;;8.25;;
40599;SDS011;26309;50.924;4.754;2024-02-14T09:00:56;10.82;;;8.18;;
40599;SDS011;26309;50.924;4.754;2024-02-14T09:03:22;12.30;;;8.88;;
40599;SDS011;26309;50.924;4.754;2024-02-14T09:05:48;13.38;;;8.40;;
40599;SDS011;26309;50.924;4.754;2024-02-14T09:08:14;13.23;;;7.78;;
40599;SDS011;26309;50.924;4.754;2024-02-14T09:10:40;12.65;;;8.52;;
40599;SDS011;26309;50.924;4.754;2024-02-14T09:13:06;12.43;;;9.23;;
40599;SDS011;26309;50.924;4.754;2024-02-14T09:15:32;13.02;;;9.00;;
40599;SDS011;26309;50.924;4.754;2024-02-14T09:17:58;13.07;;;8.75;;
40599;SDS011;26309;50.924;4.754;2024-02-14T09:20:28;12.57;;;8.55;;
40599;SDS011;26309;50.924;4.754;2024-02-14T09:22:55;12.55;;;8.23;;
40599;SDS011;26309;50.924;4.754;2024-02-14T09:25:23;11.05;;;8.77;;
40599;SDS011;26309;50.924;4.754;2024-02-14T09:27:50;13.55;;;9.38;;
40599;SDS011;26309;50.924;4.754;2024-02-14T09:30:16;12.98;;;8.70;;
40599;SDS011;26309;50.924;4.754;2024-02-14T09:32:45;12.77;;;9.50;;
40599;SDS011;26309;50.924;4.754;2024-02-14T09:35:12;15.02;;;9.27;;
40599;SDS011;26309;50.924;4.754;2024-02-14T09:37:38;18.20;;;10.07;;
40599;SDS011;26309;50.924;4.754;2024-02-14T09:40:05;10.95;;;9.75;;
40599;SDS011;26309;50.924;4.754;2024-02-14T09:42:54;12.80;;;9.68;;
40599;SDS011;26309;50.924;4.754;2024-02-14T09:45:20;18.42;;;10.30;;
40599;SDS011;26309;50.924;4.754;2024-02-14T09:47:49;14.48;;;10.02;;
40599;SDS011;26309;50.924;4.754;2024-02-14T09:50:16;12.88;;;9.82;;
40599;SDS011;26309;50.924;4.754;2024-02-14T09:52:43;14.05;;;9.52;;
40599;SDS011;26309;50.924;4.754;2024-02-14T09:55:14;17.40;;;10.13;;
40599;SDS011;26309;50.924;4.754;2024-02-14T09:57:42;13.13;;;9.23;;
40599;SDS011;26309;50.924;4.754;2024-02-14T10:00:11;11.38;;;9.48;;
40599;SDS011;26309;50.924;4.754;2024-02-14T10:02:41;13.48;;;10.07;;
40599;SDS011;26309;50.924;4.754;2024-02-14T10:05:07;12.93;;;9.13;;
40599;SDS011;26309;50.924;4.754;2024-02-14T10:07:39;11.45;;;9.23;;
40599;SDS011;26309;50.924;4.754;2024-02-14T10:10:06;11.40;;;8.60;;
40599;SDS011;26309;50.924;4.754;2024-02-14T10:12:32;12.70;;;8.88;;
40599;SDS011;26309;50.924;4.754;2024-02-14T10:14:58;9.38;;;8.20;;
40599;SDS011;26309;50.924;4.754;2024-02-14T10:17:25;11.48;;;8.48;;
40599;SDS011;26309;50.924;4.754;2024-02-14T10:19:55;10.50;;;7.90;;
40599;SDS011;26309;50.924;4.754;2024-02-14T10:22:32;11.25;;;7.80;;
40599;SDS011;26309;50.924;4.754;2024-02-14T10:25:04;12.55;;;7.10;;
40599;SDS011;26309;50.924;4.754;2024-02-14T10:27:37;8.98;;;6.90;;
40599;SDS011;26309;50.924;4.754;2024-02-14T10:30:04;9.55;;;6.80;;
40599;SDS011;26309;50.924;4.754;2024-02-14T10:32:37;7.95;;;6.47;;
40599;SDS011;26309;50.924;4.754;2024-02-14T10:35:12;7.95;;;6.07;;
40599;SDS011;26309;50.924;4.754;2024-02-14T10:37:38;8.93;;;6.43;;
40599;SDS011;26309;50.924;4.754;2024-02-14T10:40:05;6.80;;;5.68;;
40599;SDS011;26309;50.924;4.754;2024-02-14T10:42:34;6.10;;;5.32;;
40599;SDS011;26309;50.924;4.754;2024-02-14T10:45:00;5.63;;;4.85;;
40599;SDS011;26309;50.924;4.754;2024-02-14T10:47:34;8.35;;;4.85;;
40599;SDS011;26309;50.924;4.754;2024-02-14T10:50:05;5.88;;;5.25;;
40599;SDS011;26309;50.924;4.754;2024-02-14T10:52:33;8.57;;;4.78;;
40599;SDS011;26309;50.924;4.754;2024-02-14T10:55:04;5.50;;;4.60;;
40599;SDS011;26309;50.924;4.754;2024-02-14T10:57:31;6.07;;;4.10;;
40599;SDS011;26309;50.924;4.754;2024-02-14T10:59:58;6.80;;;4.28;;
40599;SDS011;26309;50.924;4.754;2024-02-14T11:02:33;4.90;;;4.40;;
40599;SDS011;26309;50.924;4.754;2024-02-14T11:05:00;6.63;;;4.15;;
40599;SDS011;26309;50.924;4.754;2024-02-14T11:07:28;4.95;;;3.78;;
40599;SDS011;26309;50.924;4.754;2024-02-14T11:10:01;4.13;;;3.72;;
40599;SDS011;26309;50.924;4.754;2024-02-14T11:12:35;6.22;;;4.10;;
40599;SDS011;26309;50.924;4.754;2024-02-14T11:17:46;3.80;;;3.22;;
40599;SDS011;26309;50.924;4.754;2024-02-14T11:23:03;4.18;;;3.20;;
40599;SDS011;26309;50.924;4.754;2024-02-14T11:25:37;3.85;;;3.10;;
40599;SDS011;26309;50.924;4.754;2024-02-14T11:28:13;3.30;;;3.00;;
40599;SDS011;26309;50.924;4.754;2024-02-14T11:30:46;5.82;;;2.67;;
40599;SDS011;26309;50.924;4.754;2024-02-14T11:35:48;3.00;;;2.58;;
40599;SDS011;26309;50.924;4.754;2024-02-14T11:38:18;3.03;;;2.72;;
40599;SDS011;26309;50.924;4.754;2024-02-14T11:40:44;2.78;;;2.58;;
40599;SDS011;26309;50.924;4.754;2024-02-14T11:43:14;2.85;;;2.65;;
40599;SDS011;26309;50.924;4.754;2024-02-14T11:45:48;3.50;;;3.00;;
40599;SDS011;26309;50.924;4.754;2024-02-14T11:48:17;3.22;;;2.50;;
40599;SDS011;26309;50.924;4.754;2024-02-14T11:50:48;2.67;;;2.35;;
40599;SDS011;26309;50.924;4.754;2024-02-14T11:53:17;3.80;;;2.35;;
40599;SDS011;26309;50.924;4.754;2024-02-14T11:55:49;2.88;;;2.60;;
40599;SDS011;26309;50.924;4.754;2024-02-14T11:58:15;2.67;;;2.47;;
40599;SDS011;26309;50.924;4.754;2024-02-14T12:00:43;3.80;;;2.60;;
40599;SDS011;26309;50.924;4.754;2024-02-14T12:05:47;2.45;;;2.20;;
40599;SDS011;26309;50.924;4.754;2024-02-14T12:08:16;4.95;;;2.50;;
40599;SDS011;26309;50.924;4.754;2024-02-14T12:10:43;2.42;;;2.22;;
40599;SDS011;26309;50.924;4.754;2024-02-14T12:13:19;2.80;;;2.47;;
40599;SDS011;26309;50.924;4.754;2024-02-14T12:15:50;3.50;;;2.67;;
40599;SDS011;26309;50.924;4.754;2024-02-14T12:18:18;2.80;;;2.58;;
40599;SDS011;26309;50.924;4.754;2024-02-14T12:20:45;2.70;;;2.50;;
40599;SDS011;26309;50.924;4.754;2024-02-14T12:23:16;2.88;;;2.60;;
40599;SDS011;26309;50.924;4.754;2024-02-14T12:25:43;2.95;;;2.70;;
40599;SDS011;26309;50.924;4.754;2024-02-14T12:28:16;3.55;;;2.67;;
40599;SDS011;26309;50.924;4.754;2024-02-14T12:30:49;3.75;;;2.55;;
40599;SDS011;26309;50.924;4.754;2024-02-14T12:33:21;4.88;;;2.78;;
40599;SDS011;26309;50.924;4.754;2024-02-14T12:35:49;4.03;;;2.75;;
40599;SDS011;26309;50.924;4.754;2024-02-14T12:38:17;3.13;;;2.75;;
40599;SDS011;26309;50.924;4.754;2024-02-14T12:40:45;3.92;;;2.75;;
40599;SDS011;26309;50.924;4.754;2024-02-14T12:43:11;4.50;;;2.88;;
40599;SDS011;26309;50.924;4.754;2024-02-14T12:45:38;3.50;;;2.63;;
40599;SDS011;26309;50.924;4.754;2024-02-14T12:48:05;3.90;;;2.80;;
40599;SDS011;26309;50.924;4.754;2024-02-14T12:50:34;4.53;;;2.90;;
40599;SDS011;26309;50.924;4.754;2024-02-14T12:53:00;4.00;;;3.15;;
40599;SDS011;26309;50.924;4.754;2024-02-14T12:55:27;4.93;;;3.55;;
40599;SDS011;26309;50.924;4.754;2024-02-14T12:57:55;6.40;;;3.67;;
40599;SDS011;26309;50.924;4.754;2024-02-14T13:00:22;4.20;;;3.20;;
40599;SDS011;26309;50.924;4.754;2024-02-14T13:02:48;5.72;;;4.55;;
40599;SDS011;26309;50.924;4.754;2024-02-14T13:05:14;7.57;;;4.50;;
40599;SDS011;26309;50.924;4.754;2024-02-14T13:07:41;6.45;;;5.18;;
40599;SDS011;26309;50.924;4.754;2024-02-14T13:10:08;4.95;;;4.10;;
40599;SDS011;26309;50.924;4.754;2024-02-14T13:12:37;4.72;;;4.20;;
40599;SDS011;26309;50.924;4.754;2024-02-14T13:15:04;7.60;;;4.90;;
40599;SDS011;26309;50.924;4.754;2024-02-14T13:17:33;6.60;;;4.97;;
40599;SDS011;26309;50.924;4.754;2024-02-14T13:19:58;7.82;;;5.35;;
40599;SDS011;26309;50.924;4.754;2024-02-14T13:22:27;7.25;;;5.35;;
40599;SDS011;26309;50.924;4.754;2024-02-14T13:24:53;7.88;;;5.28;;
40599;SDS011;26309;50.924;4.754;2024-02-14T13:27:22;7.25;;;5.53;;
40599;SDS011;26309;50.924;4.754;2024-02-14T13:29:48;7.90;;;6.30;;
40599;SDS011;26309;50.924;4.754;2024-02-14T13:32:15;9.80;;;6.45;;
40599;SDS011;26309;50.924;4.754;2024-02-14T13:34:41;10.38;;;6.57;;
40599;SDS011;26309;50.924;4.754;2024-02-14T13:37:09;9.00;;;6.28;;
40599;SDS011;26309;50.924;4.754;2024-02-14T13:39:36;9.55;;;6.25;;
40599;SDS011;26309;50.924;4.754;2024-02-14T13:42:02;7.95;;;6.07;;
40599;SDS011;26309;50.924;4.754;2024-02-14T13:44:29;6.50;;;5.70;;
40599;SDS011;26309;50.924;4.754;2024-02-14T13:46:55;11.45;;;5.88;;
40599;SDS011;26309;50.924;4.754;2024-02-14T13:49:20;11.18;;;5.80;;
40599;SDS011;26309;50.924;4.754;2024-02-14T13:51:52;12.65;;;5.85;;
40599;SDS011;26309;50.924;4.754;2024-02-14T13:54:18;8.32;;;5.55;;
40599;SDS011;26309;50.924;4.754;2024-02-14T13:56:44;7.88;;;5.53;;
40599;SDS011;26309;50.924;4.754;2024-02-14T13:59:11;9.88;;;5.70;;
40599;SDS011;26309;50.924;4.754;2024-02-14T14:01:37;8.68;;;6.10;;
40599;SDS011;26309;50.924;4.754;2024-02-14T14:04:03;11.20;;;6.38;;
40599;SDS011;26309;50.924;4.754;2024-02-14T14:06:29;10.57;;;6.03;;
40599;SDS011;26309;50.924;4.754;2024-02-14T14:08:56;8.07;;;5.85;;
40599;SDS011;26309;50.924;4.754;2024-02-14T14:11:22;8.77;;;6.25;;
40599;SDS011;26309;50.924;4.754;2024-02-14T14:13:48;8.50;;;6.30;;
40599;SDS011;26309;50.924;4.754;2024-02-14T14:16:14;13.18;;;7.13;;
40599;SDS011;26309;50.924;4.754;2024-02-14T14:18:40;10.30;;;6.53;;
40599;SDS011;26309;50.924;4.754;2024-02-14T14:21:06;9.23;;;6.05;;
40599;SDS011;26309;50.924;4.754;2024-02-14T14:23:32;9.52;;;6.22;;
40599;SDS011;26309;50.924;4.754;2024-02-14T14:25:58;8.98;;;5.97;;
40599;SDS011;26309;50.924;4.754;2024-02-14T14:28:25;9.65;;;6.05;;
40599;SDS011;26309;50.924;4.754;2024-02-14T14:30:52;8.68;;;6.22;;
40599;SDS011;26309;50.924;4.754;2024-02-14T14:33:21;10.13;;;6.35;;
40599;SDS011;26309;50.924;4.754;2024-02-14T14:35:47;10.13;;;6.45;;
40599;SDS011;26309;50.924;4.754;2024-02-14T14:38:21;8.18;;;5.70;;
40599;SDS011;26309;50.924;4.754;2024-02-14T14:40:47;8.85;;;5.63;;
40599;SDS011;26309;50.924;4.754;2024-02-14T14:43:13;8.25;;;5.85;;
40599;SDS011;26309;50.924;4.754;2024-02-14T14:45:40;8.30;;;5.72;;
40599;SDS011;26309;50.924;4.754;2024-02-14T14:48:07;9.13;;;5.50;;
40599;SDS011;26309;50.924;4.754;2024-02-14T14:50:36;8.40;;;5.47;;